Time;durP1;ratioP1;P1;durP2;ratioP2;P2;SDS_P1;SDS_P2;PMS_P1;PMS_P2;Temp;Humidity;BMP_temperature;BMP_pressure;BME280_temperature;BME280_humidity;BME280_pressure;Samples;Min_cycle;Max_cycle;Signal;HPM_P1;HPM_P2
2022/04/11 00:02:24;;;;;;;;;;;;;;;20.77;30.52;101307.19;7278482;19;153183;-55
2022/04/11 00:04:51;;;;;;;;;;;;;;;20.79;30.70;101310.53;7278960;19;151956;-55
2022/04/11 00:07:17;;;;;;;;;;;;;;;20.80;30.61;101300.94;7278683;19;154333;-55
2022/04/11 00:09:44;;;;;;;;;;;;;;;20.81;30.39;101296.16;7276143;19;153385;-56
2022/04/11 00:12:11;;;;;;;;;;;;;;;20.79;30.81;101293.69;7278427;19;152035;-55
2022/04/11 00:14:38;;;;;;;;;;;;;;;20.79;30.44;101285.25;7285890;19;153173;-55
2022/04/11 00:17:05;;;;;;;;;;;;;;;20.78;30.53;101288.34;7278827;19;152137;-56
2022/04/11 00:19:32;;;;;;;;;;;;;;;20.78;30.40;101286.41;7279660;19;153653;-55
2022/04/11 00:21:58;;;;;;;;;;;;;;;20.77;30.56;101287.53;7275167;19;153417;-55
2022/04/11 00:24:25;;;;;;;;;;;;;;;20.77;30.68;101281.06;7277364;19;152115;-56
2022/04/11 00:26:52;;;;;;;;;;;;;;;20.76;30.87;101280.22;7275831;19;152319;-55
2022/04/11 00:29:18;;;;;;;;;;;;;;;20.75;30.56;101287.00;7277019;19;153861;-56
2022/04/11 00:31:45;;;;;;;;;;;;;;;20.74;30.62;101276.06;7277099;19;152272;-56
2022/04/11 00:34:12;;;;;;;;;;;;;;;20.73;30.97;101269.59;7275998;19;153046;-55
2022/04/11 00:36:39;;;;;;;;;;;;;;;20.72;30.90;101279.16;7282549;19;154419;-56
2022/04/11 00:39:05;;;;;;;;;;;;;;;20.69;31.25;101276.97;7277409;19;152702;-55
2022/04/11 00:41:33;;;;;;;;;;;;;;;20.67;30.91;101278.41;7277441;19;153367;-55
2022/04/11 00:43:59;;;;;;;;;;;;;;;20.64;31.16;101271.41;7277992;19;151659;-55
2022/04/11 00:46:26;;;;;;;;;;;;;;;20.63;31.29;101266.94;7277787;19;153474;-56
2022/04/11 00:48:53;;;;;;;;;;;;;;;20.62;31.29;101265.28;7276941;19;154084;-56
2022/04/11 00:51:21;;;;;;;;;;;;;;;20.58;31.24;101260.56;7277670;19;151837;-56
2022/04/11 00:53:49;;;;;;;;;;;;;;;20.58;30.86;101260.56;7278544;19;153724;-55
2022/04/11 00:56:17;;;;;;;;;;;;;;;20.54;30.99;101260.31;7274493;19;154034;-55
2022/04/11 00:58:45;;;;;;;;;;;;;;;20.54;31.29;101260.31;7283274;19;151846;-56
2022/04/11 01:01:13;;;;;;;;;;;;;;;20.50;31.08;101256.44;7276323;19;153643;-56
2022/04/11 01:03:40;;;;;;;;;;;;;;;20.49;31.34;101245.53;7273716;19;152242;-55
2022/04/11 01:06:07;;;;;;;;;;;;;;;20.48;31.12;101246.66;7274278;19;152996;-56
2022/04/11 01:08:36;;;;;;;;;;;;;;;20.45;31.13;101241.63;7271465;19;153932;-55
2022/04/11 01:11:03;;;;;;;;;;;;;;;20.44;31.55;101238.03;7271065;19;152168;-55
2022/04/11 01:13:30;;;;;;;;;;;;;;;20.41;31.16;101236.63;7273014;19;153796;-55
2022/04/11 01:16:01;;;;;;;;;;;;;;;20.40;31.40;101228.50;7275710;19;152581;-55
2022/04/11 01:18:35;;;;;;;;;;;;;;;20.39;31.57;101232.47;7284929;19;151835;-55
2022/04/11 01:21:03;;;;;;;;;;;;;;;20.36;31.73;101219.03;7274503;19;154888;-55
2022/04/11 01:23:30;;;;;;;;;;;;;;;20.35;31.75;101225.78;7275742;19;152218;-55
2022/04/11 01:25:57;;;;;;;;;;;;;;;20.34;31.70;101224.13;7278174;19;153100;-56
2022/04/11 01:28:25;;;;;;;;;;;;;;;20.29;31.52;101210.97;7273676;19;153807;-55
2022/04/11 01:30:56;;;;;;;;;;;;;;;20.29;31.43;101210.97;7277657;19;152063;-55
2022/04/11 01:33:24;;;;;;;;;;;;;;;20.26;31.40;101205.13;7276346;19;151970;-55
2022/04/11 01:35:51;;;;;;;;;;;;;;;20.23;31.67;101198.13;7276959;19;154095;-55
2022/04/11 01:38:17;;;;;;;;;;;;;;;20.22;31.95;101192.78;7277867;19;152041;-55
2022/04/11 01:40:48;;;;;;;;;;;;;;;20.20;31.70;101195.09;7282872;19;153407;-56
2022/04/11 01:43:14;;;;;;;;;;;;;;;20.17;32.00;101195.69;7275137;19;151994;-55
2022/04/11 01:45:41;;;;;;;;;;;;;;;20.16;31.68;101194.84;7279030;19;152640;-55
2022/04/11 01:48:08;;;;;;;;;;;;;;;20.14;32.04;101187.84;7274269;19;154155;-55
2022/04/11 01:50:35;;;;;;;;;;;;;;;20.14;31.81;101191.50;7278844;19;152508;-55
2022/04/11 01:53:06;;;;;;;;;;;;;;;20.11;32.10;101180.88;7276586;19;151722;-55
2022/04/11 01:55:32;;;;;;;;;;;;;;;20.06;32.06;101168.88;7277361;19;154074;-56
2022/04/11 01:57:59;;;;;;;;;;;;;;;20.04;32.08;101173.94;7277371;19;151614;-55
2022/04/11 02:00:27;;;;;;;;;;;;;;;20.02;31.81;101167.81;7278611;19;153419;-55
2022/04/11 02:02:55;;;;;;;;;;;;;;;20.00;32.24;101159.69;7282162;19;154106;-55
2022/04/11 02:05:21;;;;;;;;;;;;;;;19.98;32.32;101159.19;7277569;19;152121;-56
2022/04/11 02:07:49;;;;;;;;;;;;;;;19.96;32.36;101165.09;7275686;19;153351;-55
2022/04/11 02:10:15;;;;;;;;;;;;;;;19.94;32.42;101172.94;7278440;19;153152;-55
2022/04/11 02:12:43;;;;;;;;;;;;;;;19.92;32.45;101175.22;7273701;19;153692;-55
2022/04/11 02:15:14;;;;;;;;;;;;;;;19.91;32.15;101175.50;7276222;19;152548;-56
2022/04/11 02:17:41;;;;;;;;;;;;;;;19.87;32.51;101175.28;7276447;19;152133;-55
2022/04/11 02:20:08;;;;;;;;;;;;;;;19.85;32.48;101174.72;7288665;19;153315;-55
2022/04/11 02:22:52;;;;;;;;;;;;;;;19.84;32.20;101163.84;7289886;19;153542;-55
2022/04/11 02:25:22;;;;;;;;;;;;;;;19.82;32.57;101171.69;7299477;19;151993;-55
2022/04/11 02:27:50;;;;;;;;;;;;;;;19.78;32.66;101171.47;7289994;19;153283;-55
2022/04/11 02:30:17;;;;;;;;;;;;;;;19.78;32.42;101165.03;7291527;19;152300;-56
2022/04/11 02:32:46;;;;;;;;;;;;;;;19.75;32.59;101155.25;7292128;19;152668;-55
2022/04/11 02:35:20;;;;;;;;;;;;;;;19.73;32.37;101151.06;7290194;19;153847;-55
2022/04/11 02:37:47;;;;;;;;;;;;;;;19.70;32.41;101151.66;7290657;19;152124;-55
2022/04/11 02:40:14;;;;;;;;;;;;;;;19.68;32.67;101146.34;7291787;19;152899;-55
2022/04/11 02:42:42;;;;;;;;;;;;;;;19.66;32.77;101139.38;7288832;19;152401;-55
2022/04/11 02:45:11;;;;;;;;;;;;;;;19.64;32.70;101136.88;7288769;19;152834;-55
2022/04/11 02:47:38;;;;;;;;;;;;;;;19.60;32.64;101130.19;7296339;19;152801;-55
2022/04/11 02:50:05;;;;;;;;;;;;;;;19.58;32.59;101126.84;7291234;19;152040;-55
2022/04/11 02:52:32;;;;;;;;;;;;;;;19.57;32.66;101130.78;7289635;19;152740;-55
2022/04/11 02:54:59;;;;;;;;;;;;;;;19.56;32.60;101126.31;7286597;19;153503;-55
2022/04/11 02:57:26;;;;;;;;;;;;;;;19.53;32.79;101136.13;7290916;19;152898;-55
2022/04/11 02:59:53;;;;;;;;;;;;;;;19.52;32.68;101139.25;7288918;19;152653;-56
2022/04/11 03:02:20;;;;;;;;;;;;;;;19.49;32.85;101134.22;7289788;19;152483;-55
2022/04/11 03:04:47;;;;;;;;;;;;;;;19.49;33.13;101135.06;7289126;19;152365;-56
2022/04/11 03:07:14;;;;;;;;;;;;;;;19.48;33.02;101125.00;7290269;19;152552;-55
2022/04/11 03:09:40;;;;;;;;;;;;;;;19.46;33.21;101123.63;7296695;19;151913;-56
2022/04/11 03:12:07;;;;;;;;;;;;;;;19.45;32.92;101119.97;7289412;19;153593;-55
2022/04/11 03:14:34;;;;;;;;;;;;;;;19.42;33.15;101116.91;7289403;19;154032;-55
2022/04/11 03:17:01;;;;;;;;;;;;;;;19.40;33.13;101113.56;7291080;19;154260;-55
2022/04/11 03:19:28;;;;;;;;;;;;;;;19.39;33.19;101114.72;7290192;19;153530;-55
2022/04/11 03:21:55;;;;;;;;;;;;;;;19.38;33.22;101115.84;7288009;19;153196;-55
2022/04/11 03:24:21;;;;;;;;;;;;;;;19.36;33.05;101123.69;7290030;19;152394;-54
2022/04/11 03:26:48;;;;;;;;;;;;;;;19.34;33.07;101117.56;7287641;19;153882;-55
2022/04/11 03:29:15;;;;;;;;;;;;;;;19.33;33.23;101121.50;7294711;19;153244;-55
2022/04/11 03:31:41;;;;;;;;;;;;;;;19.30;33.19;101119.28;7280617;19;153098;-55
2022/04/11 03:34:08;;;;;;;;;;;;;;;19.30;33.12;101120.13;7281294;19;153901;-55
2022/04/11 03:36:35;;;;;;;;;;;;;;;19.27;33.55;101111.47;7281606;19;151967;-55
2022/04/11 03:39:01;;;;;;;;;;;;;;;19.26;33.24;101113.41;7282305;19;153473;-55
2022/04/11 03:41:29;;;;;;;;;;;;;;;19.26;33.34;101115.41;7281329;19;153916;-55
2022/04/11 03:43:55;;;;;;;;;;;;;;;19.25;33.42;101111.78;7279512;19;151878;-54
2022/04/11 03:46:22;;;;;;;;;;;;;;;19.22;33.44;101109.53;7282639;19;152652;-54
2022/04/11 03:48:49;;;;;;;;;;;;;;;19.21;33.47;101105.09;7276391;19;153652;-54
2022/04/11 03:51:16;;;;;;;;;;;;;;;19.19;33.23;101107.34;7289262;19;151768;-55
2022/04/11 03:53:42;;;;;;;;;;;;;;;19.18;33.57;101110.44;7279703;19;153323;-54
2022/04/11 03:56:09;;;;;;;;;;;;;;;19.16;33.27;101105.16;7281308;19;151863;-55
2022/04/11 03:58:36;;;;;;;;;;;;;;;19.14;33.35;101098.16;7281287;19;152631;-55
2022/04/11 04:01:02;;;;;;;;;;;;;;;19.13;33.41;101093.66;7280526;19;154006;-55
2022/04/11 04:03:30;;;;;;;;;;;;;;;19.10;33.54;101089.50;7281187;19;151911;-55
2022/04/11 04:05:57;;;;;;;;;;;;;;;19.12;33.51;101083.63;7280655;19;153434;-55
2022/04/11 04:08:23;;;;;;;;;;;;;;;19.09;33.66;101091.47;7279072;19;153807;-55
2022/04/11 04:10:50;;;;;;;;;;;;;;;19.07;33.44;101082.56;7281095;19;151827;-55
2022/04/11 04:13:17;;;;;;;;;;;;;;;19.09;33.53;101076.63;7283962;19;152723;-55
2022/04/11 04:15:43;;;;;;;;;;;;;;;19.12;33.55;101075.22;7280570;19;152087;-55
2022/04/11 04:18:12;;;;;;;;;;;;;;;19.14;33.50;101072.94;7282187;19;152609;-55
2022/04/11 04:20:39;;;;;;;;;;;;;;;19.17;33.48;101063.97;7279069;19;153708;-55
2022/04/11 04:23:06;;;;;;;;;;;;;;;19.20;33.91;101067.00;7278400;19;152067;-54
2022/04/11 04:25:34;;;;;;;;;;;;;;;19.25;33.58;101060.50;7280015;19;153402;-55
2022/04/11 04:28:01;;;;;;;;;;;;;;;19.31;33.92;101070.50;7280033;19;153276;-56
2022/04/11 04:30:30;;;;;;;;;;;;;;;19.38;33.97;101079.41;7280654;19;151949;-54
2022/04/11 04:32:57;;;;;;;;;;;;;;;19.44;34.01;101078.25;7281005;19;154763;-55
2022/04/11 04:35:24;;;;;;;;;;;;;;;19.50;33.80;101077.06;7287037;19;153234;-55
2022/04/11 04:37:51;;;;;;;;;;;;;;;19.55;33.85;101062.97;7281053;19;153324;-55
2022/04/11 04:40:18;;;;;;;;;;;;;;;19.61;33.90;101070.19;7278740;19;153920;-55
2022/04/11 04:42:46;;;;;;;;;;;;;;;19.69;33.81;101063.09;7276190;19;152084;-55
2022/04/11 04:45:20;;;;;;;;;;;;;;;19.76;33.85;101071.97;7280038;19;153562;-55
2022/04/11 04:47:46;;;;;;;;;;;;;;;19.82;33.71;101071.59;7278982;19;153275;-55
2022/04/11 04:50:13;;;;;;;;;;;;;;;19.88;33.72;101070.41;7278341;19;152465;-55
2022/04/11 04:52:40;;;;;;;;;;;;;;;19.95;33.78;101070.84;7276588;19;153110;-55
2022/04/11 04:55:07;;;;;;;;;;;;;;;20.02;33.75;101070.50;7277826;19;153015;-55
2022/04/11 04:57:34;;;;;;;;;;;;;;;20.09;33.44;101065.34;7283998;19;152034;-54
2022/04/11 05:00:01;;;;;;;;;;;;;;;20.16;33.54;101064.97;7280420;19;153585;-55
2022/04/11 05:02:34;;;;;;;;;;;;;;;20.22;33.56;101058.13;7279017;19;152106;-55
2022/04/11 05:05:08;;;;;;;;;;;;;;;20.29;33.20;101058.59;7280416;19;153423;-55
2022/04/11 05:07:34;;;;;;;;;;;;;;;20.35;33.24;101055.41;7275434;19;154046;-55
2022/04/11 05:10:08;;;;;;;;;;;;;;;20.42;33.29;101043.81;7278131;19;151882;-55
2022/04/11 05:12:39;;;;;;;;;;;;;;;20.48;33.06;101038.97;7276223;19;152547;-55
2022/04/11 05:15:06;;;;;;;;;;;;;;;20.54;32.97;101037.72;7279108;19;154666;-55
2022/04/11 05:17:33;;;;;;;;;;;;;;;20.59;33.03;101032.03;7287861;19;152480;-54
2022/04/11 05:19:59;;;;;;;;;;;;;;;20.64;32.97;101029.97;7275672;19;153387;-55
2022/04/11 05:22:26;;;;;;;;;;;;;;;20.67;32.88;101018.13;7277506;19;151984;-55
2022/04/11 05:24:53;;;;;;;;;;;;;;;20.75;32.87;101020.25;7278491;19;153275;-55
2022/04/11 05:27:19;;;;;;;;;;;;;;;20.81;32.97;101009.72;7278141;19;154012;-55
2022/04/11 05:29:46;;;;;;;;;;;;;;;20.83;32.74;101002.69;7276425;19;152227;-55
2022/04/11 05:32:13;;;;;;;;;;;;;;;20.90;33.07;100999.44;7278905;19;153087;-55
2022/04/11 05:34:39;;;;;;;;;;;;;;;20.95;32.88;100998.50;7277397;19;153996;-55
2022/04/11 05:37:06;;;;;;;;;;;;;;;20.99;32.59;100997.59;7279568;19;151795;-55
2022/04/11 05:39:35;;;;;;;;;;;;;;;21.04;32.79;101005.09;7285387;19;153467;-55
2022/04/11 05:42:02;;;;;;;;;;;;;;;21.08;32.82;100989.25;7279457;19;152139;-55
2022/04/11 05:44:29;;;;;;;;;;;;;;;21.13;32.92;100994.81;7278139;19;154569;-55
2022/04/11 05:46:55;;;;;;;;;;;;;;;21.17;32.87;100995.84;7276001;19;153641;-55
2022/04/11 05:49:23;;;;;;;;;;;;;;;21.22;32.42;100982.53;7278779;19;153330;-55
2022/04/11 05:51:50;;;;;;;;;;;;;;;21.26;32.84;100982.75;7277772;19;152682;-55
2022/04/11 05:54:16;;;;;;;;;;;;;;;21.29;32.70;100977.34;7277202;19;153375;-55
2022/04/11 05:56:43;;;;;;;;;;;;;;;21.33;32.72;100980.38;7277394;19;152005;-55
2022/04/11 05:59:10;;;;;;;;;;;;;;;21.40;32.50;100977.13;7279617;19;152737;-55
2022/04/11 06:01:37;;;;;;;;;;;;;;;21.42;32.38;100984.09;7283742;19;153177;-55
2022/04/11 06:04:04;;;;;;;;;;;;;;;21.46;32.36;100985.13;7278097;19;154241;-55
2022/04/11 06:06:31;;;;;;;;;;;;;;;21.50;32.41;100989.00;7277887;19;154056;-55
2022/04/11 06:08:58;;;;;;;;;;;;;;;21.54;32.32;100995.66;7275696;19;151993;-55
2022/04/11 06:11:24;;;;;;;;;;;;;;;21.59;32.20;100998.34;7279370;19;152550;-55
2022/04/11 06:13:51;;;;;;;;;;;;;;;21.62;32.23;100999.72;7271903;19;153439;-55
2022/04/11 06:16:18;;;;;;;;;;;;;;;21.66;32.34;100992.31;7279398;19;151587;-55
2022/04/11 06:18:44;;;;;;;;;;;;;;;21.69;32.14;100983.22;7278058;19;154072;-54
2022/04/11 06:21:11;;;;;;;;;;;;;;;21.73;32.48;100982.28;7277637;19;153833;-55
2022/04/11 06:23:38;;;;;;;;;;;;;;;21.76;32.27;100980.81;7286463;19;151710;-55
2022/04/11 06:26:05;;;;;;;;;;;;;;;21.80;32.24;100979.06;7277345;19;153726;-55
2022/04/11 06:28:31;;;;;;;;;;;;;;;21.84;32.04;100965.19;7279338;19;151556;-55
2022/04/11 06:30:58;;;;;;;;;;;;;;;21.87;32.14;100971.00;7278178;19;153048;-55
2022/04/11 06:33:25;;;;;;;;;;;;;;;21.90;32.10;100963.91;7277899;19;154441;-55
2022/04/11 06:35:51;;;;;;;;;;;;;;;21.94;32.34;100964.97;7278318;19;152286;-55
2022/04/11 06:38:18;;;;;;;;;;;;;;;21.97;32.21;100956.72;7278528;19;153449;-55
2022/04/11 06:40:45;;;;;;;;;;;;;;;22.00;32.11;100956.09;7276308;19;154338;-55
2022/04/11 06:43:11;;;;;;;;;;;;;;;22.03;32.12;100957.44;7277933;19;151702;-55
2022/04/11 06:45:38;;;;;;;;;;;;;;;22.06;32.21;100960.44;7283733;19;153391;-55
2022/04/11 06:48:05;;;;;;;;;;;;;;;22.08;32.05;100958.13;7278220;19;151603;-55
2022/04/11 06:50:31;;;;;;;;;;;;;;;22.12;31.92;100955.53;7273936;19;152989;-55
2022/04/11 06:52:58;;;;;;;;;;;;;;;22.16;32.04;100948.94;7276624;19;153341;-55
2022/04/11 06:55:25;;;;;;;;;;;;;;;22.20;32.21;100949.13;7277676;19;151947;-55
2022/04/11 06:57:52;;;;;;;;;;;;;;;22.21;31.84;100945.19;7276991;19;152751;-55
2022/04/11 07:00:18;;;;;;;;;;;;;;;22.25;32.00;100951.00;7276971;19;153757;-55
2022/04/11 07:02:47;;;;;;;;;;;;;;;22.27;31.69;100951.50;7276804;19;151855;-55
2022/04/11 07:05:20;;;;;;;;;;;;;;;22.29;31.78;100954.81;7277315;19;152539;-55
2022/04/11 07:07:47;;;;;;;;;;;;;;;22.31;31.66;100949.69;7289110;19;154086;-55
2022/04/11 07:10:13;;;;;;;;;;;;;;;22.32;32.07;100949.38;7280727;19;153489;-56
2022/04/11 07:12:41;;;;;;;;;;;;;;;22.32;31.75;100949.38;7280679;19;154151;-55
2022/04/11 07:15:09;;;;;;;;;;;;;;;22.33;31.78;100956.69;7281900;19;151724;-55
2022/04/11 07:17:35;;;;;;;;;;;;;;;22.32;31.97;100952.19;7283650;19;153315;-56
2022/04/11 07:20:02;;;;;;;;;;;;;;;22.33;32.05;100938.94;7281265;19;153636;-55
2022/04/11 07:22:29;;;;;;;;;;;;;;;22.33;31.72;100938.94;7282470;19;151978;-55
2022/04/11 07:24:56;;;;;;;;;;;;;;;22.32;31.68;100938.13;7283618;19;153562;-55
2022/04/11 07:27:23;;;;;;;;;;;;;;;22.31;31.94;100930.81;7289102;19;155044;-55
2022/04/11 07:29:50;;;;;;;;;;;;;;;22.29;32.09;100935.97;7281489;19;155010;-55
2022/04/11 07:32:16;;;;;;;;;;;;;;;22.29;31.82;100919.06;7279792;19;154328;-55
2022/04/11 07:34:43;;;;;;;;;;;;;;;22.29;32.02;100918.22;7282611;19;152143;-55
2022/04/11 07:37:11;;;;;;;;;;;;;;;22.26;32.07;100916.88;7279954;19;153453;-55
2022/04/11 07:39:38;;;;;;;;;;;;;;;22.25;32.12;100914.41;7282904;19;153589;-55
2022/04/11 07:42:05;;;;;;;;;;;;;;;22.22;31.90;100913.03;7282283;19;151878;-55
2022/04/11 07:44:32;;;;;;;;;;;;;;;22.22;32.03;100903.75;7283234;19;153551;-54
2022/04/11 07:46:58;;;;;;;;;;;;;;;22.18;32.04;100898.78;7280262;19;153368;-54
2022/04/11 07:49:27;;;;;;;;;;;;;;;22.12;31.52;100899.25;7289222;19;152043;-54
2022/04/11 07:51:54;;;;;;;;;;;;;;;22.09;31.62;100902.69;7281021;19;153842;-54
2022/04/11 07:54:20;;;;;;;;;;;;;;;22.05;31.49;100896.88;7281487;19;152422;-54
2022/04/11 07:56:47;;;;;;;;;;;;;;;21.97;31.56;100902.44;7282204;19;152952;-54
2022/04/11 07:59:14;;;;;;;;;;;;;;;21.94;31.28;100898.28;7279536;19;153579;-54
2022/04/11 08:01:40;;;;;;;;;;;;;;;21.95;31.37;100899.94;7282509;19;151497;-54
2022/04/11 08:04:07;;;;;;;;;;;;;;;21.95;31.46;100901.91;7282602;19;152919;-54
2022/04/11 08:06:34;;;;;;;;;;;;;;;21.94;30.90;100894.66;7281504;19;152801;-54
2022/04/11 08:09:01;;;;;;;;;;;;;;;21.94;31.27;100892.66;7281706;19;152250;-54
2022/04/11 08:11:27;;;;;;;;;;;;;;;21.94;31.01;100891.84;7286836;19;152535;-54
2022/04/11 08:13:54;;;;;;;;;;;;;;;21.93;31.11;100884.53;7279005;19;151700;-54
2022/04/11 08:16:21;;;;;;;;;;;;;;;21.93;30.97;100891.00;7282382;19;153210;-54
2022/04/11 08:18:48;;;;;;;;;;;;;;;21.92;31.31;100889.31;7280490;19;154158;-54
2022/04/11 08:21:14;;;;;;;;;;;;;;;21.95;31.29;100883.06;7282532;19;151528;-54
2022/04/11 08:23:41;;;;;;;;;;;;;;;21.96;31.14;100872.63;7279917;19;152519;-54
2022/04/11 08:26:08;;;;;;;;;;;;;;;21.98;31.20;100870.34;7279966;19;154456;-54
2022/04/11 08:28:34;;;;;;;;;;;;;;;22.00;31.16;100873.66;7282816;19;151561;-54
2022/04/11 08:31:01;;;;;;;;;;;;;;;22.01;31.04;100878.13;7280323;19;152861;-54
2022/04/11 08:33:28;;;;;;;;;;;;;;;21.98;30.94;100888.06;7286314;19;154097;-54
2022/04/11 08:35:55;;;;;;;;;;;;;;;22.03;31.03;100876.66;7282023;19;153478;-53
2022/04/11 08:38:22;;;;;;;;;;;;;;;22.07;31.39;100874.88;7277710;19;154092;-54
2022/04/11 08:40:50;;;;;;;;;;;;;;;22.07;30.89;100888.97;7280350;19;151864;-53
2022/04/11 08:43:20;;;;;;;;;;;;;;;22.12;30.79;100888.00;7279901;19;153447;-54
2022/04/11 08:45:47;;;;;;;;;;;;;;;22.12;31.04;100877.53;7279315;19;153949;-54
2022/04/11 08:48:14;;;;;;;;;;;;;;;22.08;30.65;100882.16;7281682;19;152322;-54
2022/04/11 08:50:40;;;;;;;;;;;;;;;22.15;31.18;100888.19;7279487;19;152786;-54
2022/04/11 08:53:07;;;;;;;;;;;;;;;22.15;31.29;100881.72;7278162;19;152573;-58
2022/04/11 08:55:34;;;;;;;;;;;;;;;22.16;30.41;100881.41;7286359;19;151980;-54
2022/04/11 08:58:01;;;;;;;;;;;;;;;22.14;30.85;100861.19;7280621;19;153498;-54
2022/04/11 09:00:28;;;;;;;;;;;;;;;22.17;30.58;100852.09;7281570;19;151571;-54
2022/04/11 09:02:54;;;;;;;;;;;;;;;22.27;30.59;100859.44;7281444;19;154286;-59
2022/04/11 09:05:22;;;;;;;;;;;;;;;22.25;31.11;100858.09;7279920;19;153778;-54
2022/04/11 09:07:50;;;;;;;;;;;;;;;22.30;30.86;100838.28;7278815;19;152099;-54
2022/04/11 09:10:18;;;;;;;;;;;;;;;22.33;31.01;100849.72;7279063;19;153379;-53
2022/04/11 09:12:49;;;;;;;;;;;;;;;22.35;30.79;100838.94;7275525;19;154624;-54
2022/04/11 09:15:23;;;;;;;;;;;;;;;22.38;30.83;100851.56;7281156;19;152392;-53
2022/04/11 09:17:50;;;;;;;;;;;;;;;22.41;30.84;100846.09;7285917;19;153463;-54
2022/04/11 09:20:18;;;;;;;;;;;;;;;22.44;30.65;100851.06;7281179;19;151991;-54
2022/04/11 09:22:47;;;;;;;;;;;;;;;22.47;30.57;100844.81;7277381;19;154152;-54
2022/04/11 09:25:24;;;;;;;;;;;;;;;22.48;30.77;100838.03;7280097;19;153277;-54
2022/04/11 09:28:03;;;;;;;;;;;;;;;22.51;30.75;100831.75;7278998;19;151785;-54
2022/04/11 09:30:33;;;;;;;;;;;;;;;22.54;30.78;100817.00;7279079;19;152633;-54
2022/04/11 09:33:01;;;;;;;;;;;;;;;22.54;30.96;100802.94;7276670;19;154278;-54
2022/04/11 09:35:32;;;;;;;;;;;;;;;22.56;30.74;100803.44;7280673;19;151620;-54
2022/04/11 09:38:06;;;;;;;;;;;;;;;22.56;30.59;100795.00;7286978;19;153006;-54
2022/04/11 09:40:48;;;;;;;;;;;;;;;22.58;30.67;100792.66;7279549;19;151942;-54
2022/04/11 09:43:16;;;;;;;;;;;;;;;22.58;30.79;100787.03;7280417;19;154659;-55
2022/04/11 09:45:44;;;;;;;;;;;;;;;22.59;30.55;100777.44;7278802;19;153282;-54
2022/04/11 09:48:15;;;;;;;;;;;;;;;22.58;30.89;100775.78;7279967;19;151684;-54
2022/04/11 09:50:41;;;;;;;;;;;;;;;22.59;31.03;100765.34;7278488;19;153340;-54
2022/04/11 09:53:12;;;;;;;;;;;;;;;22.57;31.17;100770.50;7278870;19;153242;-54
2022/04/11 09:55:40;;;;;;;;;;;;;;;22.57;30.76;100759.22;7279957;19;151888;-54
2022/04/11 09:58:07;;;;;;;;;;;;;;;22.56;31.04;100761.22;7279742;19;153534;-53
2022/04/11 10:00:38;;;;;;;;;;;;;;;22.56;31.23;100751.94;7286815;19;153385;-54
2022/04/11 10:03:07;;;;;;;;;;;;;;;22.54;30.91;100760.69;7279779;19;151954;-54
2022/04/11 10:05:35;;;;;;;;;;;;;;;22.54;30.89;100754.22;7276706;19;152431;-54
2022/04/11 10:08:02;;;;;;;;;;;;;;;22.54;30.63;100757.03;7279719;19;152085;-54
2022/04/11 10:10:30;;;;;;;;;;;;;;;22.52;30.77;100739.66;7278629;19;153629;-55
2022/04/11 10:12:57;;;;;;;;;;;;;;;22.53;30.66;100738.50;7276311;19;153264;-54
2022/04/11 10:15:24;;;;;;;;;;;;;;;22.51;31.13;100738.81;7278991;19;151697;-54
2022/04/11 10:17:56;;;;;;;;;;;;;;;22.50;31.21;100725.91;7279572;19;152976;-54
2022/04/11 10:20:30;;;;;;;;;;;;;;;22.49;31.01;100721.41;7278108;19;154737;-54
2022/04/11 10:23:05;;;;;;;;;;;;;;;22.48;31.15;100716.97;7285806;19;151958;-54
2022/04/11 10:25:36;;;;;;;;;;;;;;;22.47;31.14;100723.75;7278678;19;153986;-54
2022/04/11 10:28:13;;;;;;;;;;;;;;;22.46;31.01;100719.25;7278220;19;151844;-54
2022/04/11 10:30:41;;;;;;;;;;;;;;;22.43;31.01;100700.22;7277816;19;153530;-54
2022/04/11 10:33:08;;;;;;;;;;;;;;;22.41;31.13;100708.16;7276559;19;153890;-54
2022/04/11 10:35:44;;;;;;;;;;;;;;;22.40;31.55;100685.94;7278638;19;151987;-54
2022/04/11 10:38:12;;;;;;;;;;;;;;;22.39;31.59;100701.22;7277755;19;152923;-54
2022/04/11 10:40:46;;;;;;;;;;;;;;;22.37;31.49;100690.25;7281489;19;153902;-54
2022/04/11 10:43:33;;;;;;;;;;;;;;;22.35;31.22;100672.84;7283834;19;151637;-54
2022/04/11 10:46:00;;;;;;;;;;;;;;;22.35;31.22;100655.16;7290240;19;151849;-54
2022/04/11 10:48:46;;;;;;;;;;;;;;;22.34;31.63;100650.69;7284120;19;151705;-54
2022/04/11 10:51:16;;;;;;;;;;;;;;;22.35;31.62;100655.97;7283746;19;153225;-54
2022/04/11 10:54:03;;;;;;;;;;;;;;;22.34;31.55;100642.25;7282697;19;153363;-54
2022/04/11 10:56:49;;;;;;;;;;;;;;;22.32;31.20;100642.56;7284693;19;151554;-54
2022/04/11 10:59:24;;;;;;;;;;;;;;;22.32;31.14;100639.75;7282232;19;153430;-54
2022/04/11 11:01:55;;;;;;;;;;;;;;;22.30;31.28;100642.06;7281300;19;153718;-54
2022/04/11 11:04:22;;;;;;;;;;;;;;;22.30;31.52;100644.88;7283604;19;151943;-54
2022/04/11 11:07:12;;;;;;;;;;;;;;;22.29;31.20;100637.59;7284552;19;154676;-54
2022/04/11 11:09:40;;;;;;;;;;;;;;;22.30;31.56;100642.06;7289409;19;153346;-54
2022/04/11 11:12:19;;;;;;;;;;;;;;;22.30;31.35;100653.34;7281636;19;152327;-53
2022/04/11 11:14:46;;;;;;;;;;;;;;;22.32;31.34;100658.63;7283891;19;153442;-54
2022/04/11 11:17:13;;;;;;;;;;;;;;;22.30;30.98;100649.69;7283843;19;153829;-54
2022/04/11 11:19:58;;;;;;;;;;;;;;;22.33;31.20;100669.56;7284354;19;153439;-54
2022/04/11 11:22:25;;;;;;;;;;;;;;;22.31;30.91;100671.03;7279901;19;153725;-54
2022/04/11 11:25:10;;;;;;;;;;;;;;;22.27;30.75;100668.03;7284574;19;151643;-54
2022/04/11 11:27:37;;;;;;;;;;;;;;;22.27;31.25;100673.66;7281210;19;152782;-54
2022/04/11 11:30:07;;;;;;;;;;;;;;;22.28;30.90;100660.44;7283114;19;153881;-54
2022/04/11 11:32:38;;;;;;;;;;;;;;;22.25;31.01;100664.75;7285949;19;151761;-54
2022/04/11 11:35:06;;;;;;;;;;;;;;;22.26;31.26;100659.94;7280582;19;154433;-53
2022/04/11 11:37:33;;;;;;;;;;;;;;;22.25;31.22;100661.09;7283162;19;151773;-54
2022/04/11 11:40:01;;;;;;;;;;;;;;;22.24;31.45;100663.06;7284072;19;152622;-54
2022/04/11 11:42:34;;;;;;;;;;;;;;;22.21;31.06;100646.03;7278954;19;154076;-54
2022/04/11 11:45:00;;;;;;;;;;;;;;;22.23;31.10;100655.78;7283446;19;151867;-54
2022/04/11 11:47:27;;;;;;;;;;;;;;;22.19;31.12;100657.59;7281470;19;153503;-54
2022/04/11 11:50:07;;;;;;;;;;;;;;;22.18;31.44;100667.19;7282471;19;154154;-53
2022/04/11 11:52:35;;;;;;;;;;;;;;;22.16;31.18;100669.50;7286225;19;152252;-54
2022/04/11 11:55:04;;;;;;;;;;;;;;;22.17;31.30;100671.16;7280540;19;153682;-54
2022/04/11 11:57:32;;;;;;;;;;;;;;;22.15;31.45;100662.22;7282813;19;151712;-54
2022/04/11 12:00:01;;;;;;;;;;;;;;;22.13;31.30;100664.53;7282534;19;152768;-54
2022/04/11 12:05:21;;;;;;;;;;;;;;;22.12;31.18;100649.63;7282852;19;152263;-54
2022/04/11 12:07:49;;;;;;;;;;;;;;;22.11;30.91;100641.53;7282607;19;152816;-54
2022/04/11 12:10:17;;;;;;;;;;;;;;;22.06;31.42;100636.03;7281305;19;153493;-54
2022/04/11 12:12:46;;;;;;;;;;;;;;;22.09;31.37;100624.94;7278376;19;152328;-54
2022/04/11 12:15:20;;;;;;;;;;;;;;;22.06;31.42;100634.06;7285938;19;156853;-53
2022/04/11 12:17:49;;;;;;;;;;;;;;;22.05;31.61;100637.19;7279712;19;151864;-54
2022/04/11 12:20:17;;;;;;;;;;;;;;;22.03;31.65;100631.06;7282022;19;153158;-54
2022/04/11 12:23:02;;;;;;;;;;;;;;;22.00;31.32;100626.91;7281068;19;153358;-54
2022/04/11 12:25:30;;;;;;;;;;;;;;;22.03;31.31;100625.44;7282429;19;152063;-54
2022/04/11 12:28:08;;;;;;;;;;;;;;;22.00;31.59;100621.28;7281530;19;153194;-54
2022/04/11 12:30:35;;;;;;;;;;;;;;;22.01;31.44;100622.13;7279210;19;153393;-54
2022/04/11 12:33:02;;;;;;;;;;;;;;;21.97;31.79;100621.13;7276443;19;151845;-54
2022/04/11 12:35:29;;;;;;;;;;;;;;;21.97;31.35;100609.88;7282486;19;152479;-54
2022/04/11 12:38:00;;;;;;;;;;;;;;;21.97;31.91;100609.88;7287760;19;153374;-54